createdAt,value
2023-03-23T00:00:35.606Z,58.4
2023-03-23T00:05:34.877Z,56.3
2023-03-23T00:10:34.147Z,55.7
2023-03-23T00:15:33.395Z,54.7
2023-03-23T00:20:32.653Z,59.1
2023-03-23T00:25:31.898Z,61.1
2023-03-23T00:30:31.122Z,70.6
2023-03-23T00:35:30.426Z,62.4
2023-03-23T00:40:29.647Z,60.2
2023-03-23T00:45:28.878Z,57.3
2023-03-23T00:50:37.074Z,54
2023-03-23T00:55:27.361Z,56.3
2023-03-23T01:00:26.603Z,64.1
2023-03-23T01:05:25.829Z,45.5
2023-03-23T01:10:25.053Z,45
2023-03-23T01:15:24.263Z,53
2023-03-23T01:20:23.498Z,42.7
2023-03-23T01:25:22.721Z,52
2023-03-23T01:30:21.962Z,50.7
2023-03-23T01:35:21.246Z,54.1
2023-03-23T01:40:20.412Z,41
2023-03-23T01:45:19.640Z,39
2023-03-23T01:50:18.838Z,42.4
2023-03-23T01:55:18.114Z,39.9
2023-03-23T02:00:17.335Z,36.5
2023-03-23T02:05:16.570Z,37.5
2023-03-23T02:10:15.819Z,34.5
2023-03-23T02:15:14.990Z,44.7
2023-03-23T02:20:14.214Z,40.7
2023-03-23T02:25:13.463Z,38.8
2023-03-23T02:30:12.657Z,35.7
2023-03-23T02:35:11.884Z,37.7
2023-03-23T02:40:11.134Z,30
2023-03-23T02:45:10.333Z,39.5
2023-03-23T02:50:09.509Z,34.2
2023-03-23T02:55:08.720Z,36.7
2023-03-23T03:00:07.930Z,24.2
2023-03-23T03:05:07.130Z,28.2
2023-03-23T03:10:06.297Z,30.7
2023-03-23T03:15:05.597Z,27.6
2023-03-23T03:20:04.731Z,27.2
2023-03-23T03:25:18.663Z,31.4
2023-03-23T03:30:03.240Z,25.9
2023-03-23T03:35:02.464Z,29
2023-03-23T03:40:01.643Z,26.9
2023-03-23T03:45:00.922Z,22.6
2023-03-23T03:50:00.095Z,23.9
2023-03-23T03:54:59.306Z,20.4
2023-03-23T03:59:58.478Z,25
2023-03-23T04:04:57.713Z,32
2023-03-23T04:09:56.914Z,21
2023-03-23T04:14:56.127Z,28
2023-03-23T04:19:55.298Z,25
2023-03-23T04:24:56.818Z,25.4
2023-03-23T04:29:53.739Z,24.1
2023-03-23T04:34:52.903Z,37.2
2023-03-23T04:39:52.157Z,22.7
2023-03-23T04:44:51.322Z,30.8
2023-03-23T04:49:50.526Z,30.5
2023-03-23T04:54:49.731Z,20.9
2023-03-23T04:59:48.932Z,24.2
2023-03-23T05:04:48.102Z,28.2
2023-03-23T05:09:47.297Z,19.2
2023-03-23T05:14:46.521Z,21.7
2023-03-23T05:19:45.696Z,20.7
2023-03-23T05:24:44.889Z,18.1
2023-03-23T05:29:44.105Z,22.9
2023-03-23T05:34:43.276Z,21.8
2023-03-23T05:39:42.520Z,20.8
2023-03-23T05:44:41.756Z,21.8
2023-03-23T05:49:40.942Z,15.3
2023-03-23T05:54:40.206Z,13.6
2023-03-23T05:59:39.506Z,22.4
2023-03-23T06:04:38.771Z,14.8
2023-03-23T06:09:38.014Z,16.6
2023-03-23T06:14:37.352Z,27
2023-03-23T06:19:36.624Z,16.6
2023-03-23T06:24:35.931Z,22.9
2023-03-23T06:29:35.223Z,14.4
2023-03-23T06:34:34.546Z,18.9
2023-03-23T06:39:33.912Z,20.3
2023-03-23T06:44:33.226Z,19.9
2023-03-23T06:49:32.598Z,21.3
2023-03-23T06:54:31.925Z,19.1
2023-03-23T06:59:31.255Z,29.2
2023-03-23T07:04:30.631Z,15.7
2023-03-23T07:09:42.697Z,13.8
2023-03-23T07:14:29.362Z,13.7
2023-03-23T07:19:28.781Z,13.3
2023-03-23T07:24:28.182Z,13.5
2023-03-23T07:29:27.852Z,19
2023-03-23T07:34:26.993Z,13.6
2023-03-23T07:39:26.450Z,13.5
2023-03-23T07:44:25.923Z,14.3
2023-03-23T07:49:25.373Z,13.5
2023-03-23T07:54:24.850Z,12.9
2023-03-23T07:59:24.336Z,13.8
2023-03-23T08:04:23.789Z,12.7
2023-03-23T08:09:23.301Z,14.4
2023-03-23T08:14:22.815Z,16.6
2023-03-23T08:19:22.305Z,9.9
2023-03-23T08:24:21.818Z,11.1
2023-03-23T08:29:21.403Z,9.9
2023-03-23T08:34:20.860Z,15
2023-03-23T08:39:20.404Z,12.2
2023-03-23T08:44:19.921Z,12.3
2023-03-23T08:49:19.466Z,13.1
2023-03-23T08:54:18.971Z,11.6
2023-03-23T08:59:18.552Z,8.1
2023-03-23T09:04:19.039Z,8.3
2023-03-23T09:09:17.634Z,7.6
2023-03-23T09:14:17.125Z,6.7
2023-03-23T09:19:16.718Z,11.6
2023-03-23T09:24:16.269Z,6.5
2023-03-23T09:29:15.838Z,5.8
2023-03-23T09:34:15.437Z,7
2023-03-23T09:39:14.992Z,7.6
2023-03-23T09:44:14.563Z,6
2023-03-23T09:49:14.163Z,4.2
2023-03-23T09:54:13.782Z,5.5
2023-03-23T09:59:13.302Z,5.1
2023-03-23T10:04:12.867Z,4.6
2023-03-23T10:09:12.409Z,3.4
2023-03-23T10:14:12.033Z,5.2
2023-03-23T10:19:11.606Z,6.4
2023-03-23T10:24:11.147Z,5.2
2023-03-23T10:29:10.738Z,6.2
2023-03-23T10:34:10.433Z,4.3
2023-03-23T10:39:09.972Z,4.6
2023-03-23T10:44:09.589Z,4.4
2023-03-23T10:49:09.122Z,5.5
2023-03-23T10:54:10.750Z,3.9
2023-03-23T10:59:08.339Z,4.7
2023-03-23T11:04:07.926Z,5.1
2023-03-23T11:09:07.530Z,4.7
2023-03-23T11:14:07.130Z,4.7
2023-03-23T11:19:06.745Z,6.1
2023-03-23T11:24:09.872Z,4.1
2023-03-23T11:29:05.988Z,7.5
2023-03-23T11:34:06.302Z,3.2
2023-03-23T11:39:05.201Z,4.4
2023-03-23T11:44:04.837Z,3.1
2023-03-23T11:49:12.837Z,4.2
2023-03-23T11:54:04.100Z,3.6
2023-03-23T11:59:03.738Z,6.9
2023-03-23T12:04:03.380Z,3.3
2023-03-23T12:09:02.998Z,6.2
2023-03-23T12:14:02.675Z,4.8
2023-03-23T12:19:02.298Z,6.3
2023-03-23T12:24:03.157Z,4.4
2023-03-23T12:29:01.633Z,3.6
2023-03-23T12:34:01.230Z,3.7
2023-03-23T12:39:00.910Z,2.8
2023-03-23T12:44:00.605Z,4.3
2023-03-23T12:49:00.295Z,3.4
2023-03-23T12:54:00.024Z,5.7
2023-03-23T12:58:59.715Z,4.9
2023-03-23T13:03:59.416Z,3.6
2023-03-23T13:08:59.137Z,6.5
2023-03-23T13:13:58.804Z,4.6
2023-03-23T13:18:58.508Z,3.1
2023-03-23T13:23:58.200Z,5.2
2023-03-23T13:28:57.910Z,3.9
2023-03-23T13:33:57.634Z,4.4
2023-03-23T13:38:57.348Z,4.7
2023-03-23T13:43:56.975Z,5.2
2023-03-23T13:48:57.680Z,4.5
2023-03-23T13:53:56.433Z,6.7
2023-03-23T13:58:56.082Z,4.3
2023-03-23T14:03:55.770Z,4.1
2023-03-23T14:08:55.491Z,8.9
2023-03-23T14:13:55.181Z,4.9
2023-03-23T14:18:54.868Z,3.9
2023-03-23T14:23:54.619Z,4.2
2023-03-23T14:28:55.907Z,4.3
2023-03-23T14:33:54.919Z,9.5
2023-03-23T14:38:53.589Z,6
2023-03-23T14:43:53.279Z,5.2
2023-03-23T14:48:53.007Z,5.1
2023-03-23T14:53:52.712Z,5.8
2023-03-23T14:58:52.339Z,5.7
2023-03-23T15:03:52.001Z,9
2023-03-23T15:08:51.658Z,6.3
2023-03-23T15:13:51.282Z,12.3
2023-03-23T15:18:50.965Z,6.7
2023-03-23T15:23:50.629Z,7.1
2023-03-23T15:28:50.280Z,7
2023-03-23T15:33:51.738Z,5.2
2023-03-23T15:38:49.601Z,8.1
2023-03-23T15:43:49.286Z,12.4
2023-03-23T15:48:48.880Z,7.8
2023-03-23T15:53:48.532Z,10.5
2023-03-23T15:58:48.127Z,14.5
2023-03-23T16:03:47.763Z,10.5
2023-03-23T16:08:54.835Z,9.8
2023-03-23T16:13:47.071Z,7.1
2023-03-23T16:18:46.709Z,10.7
2023-03-23T16:23:46.346Z,9.9
2023-03-23T16:28:45.979Z,9.8
2023-03-23T16:33:45.627Z,13.9
2023-03-23T16:38:49.546Z,13.7
2023-03-23T16:43:44.887Z,11.7
2023-03-23T16:48:44.522Z,12.5
2023-03-23T16:53:44.117Z,10.3
2023-03-23T16:58:43.769Z,14.2
2023-03-23T17:03:44.102Z,12.4
2023-03-23T17:08:42.904Z,14.5
2023-03-23T17:13:42.481Z,14
2023-03-23T17:18:42.078Z,19.3
2023-03-23T17:23:41.652Z,20.9
2023-03-23T17:28:41.262Z,21.2
2023-03-23T17:33:40.763Z,22.4
2023-03-23T17:38:40.268Z,22.1
2023-03-23T17:43:39.888Z,24.1
2023-03-23T17:48:39.352Z,30
2023-03-23T17:53:38.879Z,30.8
2023-03-23T17:58:38.421Z,18.4
2023-03-23T18:03:37.868Z,24.3
2023-03-23T18:08:37.411Z,20
2023-03-23T18:13:36.934Z,30.8
2023-03-23T18:18:36.407Z,16.6
2023-03-23T18:23:39.071Z,14.9
2023-03-23T18:28:35.413Z,11.8
2023-03-23T18:33:34.897Z,13.4
2023-03-23T18:38:34.355Z,19.6
2023-03-23T18:43:33.859Z,23.4
2023-03-23T18:48:33.311Z,18.9
2023-03-23T18:53:32.784Z,23.1
2023-03-23T18:58:32.239Z,16.4
2023-03-23T19:03:31.783Z,19.9
2023-03-23T19:08:31.203Z,20.5
2023-03-23T19:13:30.692Z,26.6
2023-03-23T19:18:30.151Z,21.9
2023-03-23T19:23:29.564Z,28.7
2023-03-23T19:29:00.552Z,27.7
2023-03-23T19:33:28.502Z,35.2
2023-03-23T19:38:27.952Z,40.9
2023-03-23T19:43:27.670Z,50.9
2023-03-23T19:48:26.867Z,54.8
2023-03-23T19:53:26.773Z,75.5
2023-03-23T19:58:25.722Z,51.4
2023-03-23T20:03:26.081Z,38.7
2023-03-23T20:08:25.308Z,23.6
2023-03-23T20:13:24.067Z,25.8
2023-03-23T20:18:23.547Z,21.9
2023-03-23T20:23:22.917Z,40.5
2023-03-23T20:28:22.306Z,28.8
2023-03-23T20:33:21.671Z,20.7
2023-03-23T20:38:21.119Z,23.8
2023-03-23T20:43:20.510Z,30.8
2023-03-23T20:48:19.944Z,23.6
2023-03-23T20:53:19.347Z,28.4
2023-03-23T20:58:18.742Z,23.5
2023-03-23T21:03:18.142Z,27.2
2023-03-23T21:08:17.554Z,27.7
2023-03-23T21:13:17.892Z,28
2023-03-23T21:18:16.248Z,33.3
2023-03-23T21:23:15.645Z,32.7
2023-03-23T21:28:15.029Z,26.1
2023-03-23T21:33:14.373Z,25.4
2023-03-23T21:38:13.729Z,21.8
2023-03-23T21:43:13.125Z,22.3
2023-03-23T21:48:12.505Z,32.1
2023-03-23T21:53:11.837Z,23.4
2023-03-23T21:58:11.221Z,21.2
2023-03-23T22:03:10.621Z,18.4
2023-03-23T22:08:09.891Z,18.7
2023-03-23T22:13:09.188Z,16.5
2023-03-23T22:18:08.604Z,19.5
2023-03-23T22:23:07.870Z,16
2023-03-23T22:28:07.236Z,16.7
2023-03-23T22:33:06.545Z,18.5
2023-03-23T22:38:05.851Z,23
2023-03-23T22:43:05.211Z,18.6
2023-03-23T22:48:04.583Z,17
2023-03-23T22:53:03.903Z,20
2023-03-23T22:58:03.194Z,17
2023-03-23T23:03:02.566Z,17.9
2023-03-23T23:08:01.840Z,12.5
2023-03-23T23:13:01.252Z,11.3
2023-03-23T23:18:00.642Z,13.3
2023-03-23T23:23:00.030Z,12.9
2023-03-23T23:27:59.380Z,13.1
2023-03-23T23:32:58.844Z,11.1
2023-03-23T23:37:58.121Z,12.2
2023-03-23T23:42:57.423Z,10.4
2023-03-23T23:47:56.889Z,12.6
2023-03-23T23:52:56.221Z,14.3
2023-03-23T23:57:55.509Z,13
